sensor_id;sensor_type;location;lat;lon;timestamp;P1;durP1;ratioP1;P2;durP2;ratioP2
27957;SDS011;15295;42.658;23.374;2022-10-31T00:00:40;7.55;;;3.80;;
27957;SDS011;15295;42.658;23.374;2022-10-31T00:03:15;8.25;;;4.65;;
27957;SDS011;15295;42.658;23.374;2022-10-31T00:05:42;7.07;;;4.07;;
27957;SDS011;15295;42.658;23.374;2022-10-31T00:08:08;10.93;;;4.13;;
27957;SDS011;15295;42.658;23.374;2022-10-31T00:10:37;7.38;;;3.95;;
27957;SDS011;15295;42.658;23.374;2022-10-31T00:13:06;9.15;;;4.75;;
27957;SDS011;15295;42.658;23.374;2022-10-31T00:15:32;9.32;;;4.32;;
27957;SDS011;15295;42.658;23.374;2022-10-31T00:17:59;8.65;;;4.25;;
27957;SDS011;15295;42.658;23.374;2022-10-31T00:20:25;9.15;;;4.28;;
27957;SDS011;15295;42.658;23.374;2022-10-31T00:22:58;11.32;;;4.43;;
27957;SDS011;15295;42.658;23.374;2022-10-31T00:25:24;12.80;;;4.35;;
27957;SDS011;15295;42.658;23.374;2022-10-31T00:27:51;8.10;;;4.40;;
27957;SDS011;15295;42.658;23.374;2022-10-31T00:30:16;7.50;;;4.50;;
27957;SDS011;15295;42.658;23.374;2022-10-31T00:32:41;11.48;;;4.50;;
27957;SDS011;15295;42.658;23.374;2022-10-31T00:35:07;9.25;;;4.78;;
27957;SDS011;15295;42.658;23.374;2022-10-31T00:37:32;11.20;;;4.90;;
27957;SDS011;15295;42.658;23.374;2022-10-31T00:39:58;8.48;;;4.97;;
27957;SDS011;15295;42.658;23.374;2022-10-31T00:42:23;10.63;;;4.82;;
27957;SDS011;15295;42.658;23.374;2022-10-31T00:44:49;6.75;;;4.18;;
27957;SDS011;15295;42.658;23.374;2022-10-31T00:47:16;10.55;;;4.25;;
27957;SDS011;15295;42.658;23.374;2022-10-31T00:49:42;11.05;;;4.40;;
27957;SDS011;15295;42.658;23.374;2022-10-31T00:52:14;8.27;;;4.85;;
27957;SDS011;15295;42.658;23.374;2022-10-31T00:54:39;11.13;;;4.47;;
27957;SDS011;15295;42.658;23.374;2022-10-31T00:57:05;7.72;;;4.25;;
27957;SDS011;15295;42.658;23.374;2022-10-31T00:59:30;12.65;;;4.85;;
27957;SDS011;15295;42.658;23.374;2022-10-31T01:01:55;9.18;;;4.63;;
27957;SDS011;15295;42.658;23.374;2022-10-31T01:04:21;7.82;;;4.25;;
27957;SDS011;15295;42.658;23.374;2022-10-31T01:06:46;11.27;;;5.18;;
27957;SDS011;15295;42.658;23.374;2022-10-31T01:09:12;9.98;;;4.65;;
27957;SDS011;15295;42.658;23.374;2022-10-31T01:11:37;6.40;;;3.95;;
27957;SDS011;15295;42.658;23.374;2022-10-31T01:14:05;8.02;;;4.75;;
27957;SDS011;15295;42.658;23.374;2022-10-31T01:16:30;9.18;;;5.03;;
27957;SDS011;15295;42.658;23.374;2022-10-31T01:18:56;11.18;;;5.00;;
27957;SDS011;15295;42.658;23.374;2022-10-31T01:21:22;8.63;;;4.95;;
27957;SDS011;15295;42.658;23.374;2022-10-31T01:23:55;13.70;;;5.43;;
27957;SDS011;15295;42.658;23.374;2022-10-31T01:26:22;10.13;;;5.60;;
27957;SDS011;15295;42.658;23.374;2022-10-31T01:28:56;10.82;;;5.10;;
27957;SDS011;15295;42.658;23.374;2022-10-31T01:31:27;8.50;;;5.18;;
27957;SDS011;15295;42.658;23.374;2022-10-31T01:33:54;11.77;;;4.93;;
27957;SDS011;15295;42.658;23.374;2022-10-31T01:36:21;10.68;;;5.40;;
27957;SDS011;15295;42.658;23.374;2022-10-31T01:38:55;12.20;;;6.25;;
27957;SDS011;15295;42.658;23.374;2022-10-31T01:41:42;14.18;;;7.05;;
27957;SDS011;15295;42.658;23.374;2022-10-31T01:49:37;15.43;;;7.30;;
27957;SDS011;15295;42.658;23.374;2022-10-31T01:54:41;14.30;;;7.72;;
27957;SDS011;15295;42.658;23.374;2022-10-31T01:57:11;18.13;;;8.23;;
27957;SDS011;15295;42.658;23.374;2022-10-31T01:59:40;16.85;;;7.88;;
27957;SDS011;15295;42.658;23.374;2022-10-31T02:02:09;18.85;;;8.00;;
27957;SDS011;15295;42.658;23.374;2022-10-31T02:04:38;19.10;;;7.93;;
27957;SDS011;15295;42.658;23.374;2022-10-31T02:07:26;17.33;;;7.90;;
27957;SDS011;15295;42.658;23.374;2022-10-31T02:10:17;12.52;;;6.35;;
27957;SDS011;15295;42.658;23.374;2022-10-31T02:12:44;14.35;;;7.28;;
27957;SDS011;15295;42.658;23.374;2022-10-31T02:15:18;14.48;;;7.43;;
27957;SDS011;15295;42.658;23.374;2022-10-31T02:17:43;15.15;;;7.13;;
27957;SDS011;15295;42.658;23.374;2022-10-31T02:39:12;10.63;;;5.07;;
27957;SDS011;15295;42.658;23.374;2022-10-31T02:47:28;12.05;;;5.25;;
27957;SDS011;15295;42.658;23.374;2022-10-31T02:52:29;9.77;;;4.95;;
27957;SDS011;15295;42.658;23.374;2022-10-31T02:54:58;9.30;;;4.88;;
27957;SDS011;15295;42.658;23.374;2022-10-31T02:57:50;10.15;;;4.82;;
27957;SDS011;15295;42.658;23.374;2022-10-31T03:00:47;9.32;;;4.47;;
27957;SDS011;15295;42.658;23.374;2022-10-31T03:03:26;9.25;;;4.63;;
27957;SDS011;15295;42.658;23.374;2022-10-31T03:09:12;10.43;;;5.45;;
27957;SDS011;15295;42.658;23.374;2022-10-31T03:13:11;11.15;;;5.50;;
27957;SDS011;15295;42.658;23.374;2022-10-31T03:15:12;8.27;;;5.07;;
27957;SDS011;15295;42.658;23.374;2022-10-31T03:17:49;13.88;;;6.38;;
27957;SDS011;15295;42.658;23.374;2022-10-31T03:20:19;10.27;;;5.90;;
27957;SDS011;15295;42.658;23.374;2022-10-31T03:22:51;11.50;;;5.97;;
27957;SDS011;15295;42.658;23.374;2022-10-31T03:28:01;13.57;;;6.15;;
27957;SDS011;15295;42.658;23.374;2022-10-31T03:30:40;14.95;;;6.47;;
27957;SDS011;15295;42.658;23.374;2022-10-31T03:33:10;10.50;;;5.82;;
27957;SDS011;15295;42.658;23.374;2022-10-31T03:35:51;12.85;;;6.28;;
27957;SDS011;15295;42.658;23.374;2022-10-31T03:38:19;11.13;;;5.32;;
27957;SDS011;15295;42.658;23.374;2022-10-31T03:40:46;12.30;;;5.32;;
27957;SDS011;15295;42.658;23.374;2022-10-31T03:43:16;11.95;;;5.07;;
27957;SDS011;15295;42.658;23.374;2022-10-31T03:45:54;9.60;;;5.55;;
27957;SDS011;15295;42.658;23.374;2022-10-31T03:48:20;11.15;;;5.47;;
27957;SDS011;15295;42.658;23.374;2022-10-31T03:53:16;11.57;;;5.38;;
27957;SDS011;15295;42.658;23.374;2022-10-31T04:01:43;11.65;;;6.35;;
27957;SDS011;15295;42.658;23.374;2022-10-31T04:04:12;13.35;;;6.10;;
27957;SDS011;15295;42.658;23.374;2022-10-31T04:06:59;18.33;;;5.55;;
27957;SDS011;15295;42.658;23.374;2022-10-31T04:09:26;14.10;;;6.72;;
27957;SDS011;15295;42.658;23.374;2022-10-31T04:11:55;14.13;;;6.47;;
27957;SDS011;15295;42.658;23.374;2022-10-31T04:14:24;12.13;;;6.90;;
27957;SDS011;15295;42.658;23.374;2022-10-31T04:19:44;12.68;;;7.43;;
27957;SDS011;15295;42.658;23.374;2022-10-31T04:22:09;16.02;;;8.38;;
27957;SDS011;15295;42.658;23.374;2022-10-31T04:24:36;14.05;;;8.13;;
27957;SDS011;15295;42.658;23.374;2022-10-31T04:27:04;18.65;;;8.57;;
27957;SDS011;15295;42.658;23.374;2022-10-31T04:29:29;13.90;;;7.80;;
27957;SDS011;15295;42.658;23.374;2022-10-31T04:31:54;16.90;;;8.40;;
27957;SDS011;15295;42.658;23.374;2022-10-31T04:34:26;18.02;;;9.70;;
27957;SDS011;15295;42.658;23.374;2022-10-31T04:36:57;14.43;;;8.50;;
27957;SDS011;15295;42.658;23.374;2022-10-31T04:39:23;18.42;;;10.38;;
27957;SDS011;15295;42.658;23.374;2022-10-31T04:41:48;17.33;;;8.57;;
27957;SDS011;15295;42.658;23.374;2022-10-31T04:44:13;23.45;;;9.25;;
27957;SDS011;15295;42.658;23.374;2022-10-31T04:46:39;17.38;;;8.68;;
27957;SDS011;15295;42.658;23.374;2022-10-31T04:49:04;18.10;;;9.32;;
27957;SDS011;15295;42.658;23.374;2022-10-31T04:51:29;17.92;;;9.07;;
27957;SDS011;15295;42.658;23.374;2022-10-31T04:53:55;14.07;;;8.85;;
27957;SDS011;15295;42.658;23.374;2022-10-31T04:59:06;18.23;;;8.20;;
27957;SDS011;15295;42.658;23.374;2022-10-31T05:01:33;14.35;;;8.82;;
27957;SDS011;15295;42.658;23.374;2022-10-31T05:03:58;17.95;;;9.10;;
27957;SDS011;15295;42.658;23.374;2022-10-31T05:06:31;20.02;;;9.38;;
27957;SDS011;15295;42.658;23.374;2022-10-31T05:09:22;15.85;;;9.57;;
27957;SDS011;15295;42.658;23.374;2022-10-31T05:11:48;19.58;;;10.30;;
27957;SDS011;15295;42.658;23.374;2022-10-31T05:14:13;18.95;;;9.75;;
27957;SDS011;15295;42.658;23.374;2022-10-31T05:16:41;18.42;;;9.57;;
27957;SDS011;15295;42.658;23.374;2022-10-31T05:19:06;17.60;;;10.30;;
27957;SDS011;15295;42.658;23.374;2022-10-31T05:21:31;18.02;;;10.15;;
27957;SDS011;15295;42.658;23.374;2022-10-31T05:23:57;19.70;;;10.05;;
27957;SDS011;15295;42.658;23.374;2022-10-31T05:26:23;18.65;;;10.55;;
27957;SDS011;15295;42.658;23.374;2022-10-31T05:28:49;17.95;;;10.50;;
27957;SDS011;15295;42.658;23.374;2022-10-31T05:31:21;17.10;;;10.40;;
27957;SDS011;15295;42.658;23.374;2022-10-31T05:33:46;18.83;;;10.50;;
27957;SDS011;15295;42.658;23.374;2022-10-31T05:36:12;16.38;;;10.82;;
27957;SDS011;15295;42.658;23.374;2022-10-31T05:38:37;23.13;;;10.27;;
27957;SDS011;15295;42.658;23.374;2022-10-31T05:41:03;25.08;;;11.25;;
27957;SDS011;15295;42.658;23.374;2022-10-31T05:43:28;20.52;;;11.30;;
27957;SDS011;15295;42.658;23.374;2022-10-31T05:45:56;25.40;;;12.77;;
27957;SDS011;15295;42.658;23.374;2022-10-31T05:48:32;19.45;;;11.40;;
27957;SDS011;15295;42.658;23.374;2022-10-31T05:50:57;21.17;;;10.82;;
27957;SDS011;15295;42.658;23.374;2022-10-31T05:53:22;20.73;;;12.43;;
27957;SDS011;15295;42.658;23.374;2022-10-31T05:55:48;24.02;;;11.70;;
27957;SDS011;15295;42.658;23.374;2022-10-31T05:58:13;23.45;;;12.15;;
27957;SDS011;15295;42.658;23.374;2022-10-31T06:00:39;19.38;;;12.45;;
27957;SDS011;15295;42.658;23.374;2022-10-31T06:03:05;24.90;;;13.15;;
27957;SDS011;15295;42.658;23.374;2022-10-31T06:05:32;21.48;;;11.52;;
27957;SDS011;15295;42.658;23.374;2022-10-31T06:08:00;22.45;;;12.40;;
27957;SDS011;15295;42.658;23.374;2022-10-31T06:10:26;21.83;;;12.10;;
27957;SDS011;15295;42.658;23.374;2022-10-31T06:12:52;18.42;;;11.70;;
27957;SDS011;15295;42.658;23.374;2022-10-31T06:15:17;23.35;;;12.25;;
27957;SDS011;15295;42.658;23.374;2022-10-31T06:17:59;21.02;;;12.38;;
27957;SDS011;15295;42.658;23.374;2022-10-31T06:20:26;24.33;;;12.18;;
27957;SDS011;15295;42.658;23.374;2022-10-31T06:22:52;28.38;;;13.15;;
27957;SDS011;15295;42.658;23.374;2022-10-31T06:25:17;28.23;;;11.68;;
27957;SDS011;15295;42.658;23.374;2022-10-31T06:27:43;28.85;;;13.48;;
27957;SDS011;15295;42.658;23.374;2022-10-31T06:30:09;21.05;;;12.52;;
27957;SDS011;15295;42.658;23.374;2022-10-31T06:32:35;24.15;;;13.38;;
27957;SDS011;15295;42.658;23.374;2022-10-31T06:35:00;26.63;;;12.88;;
27957;SDS011;15295;42.658;23.374;2022-10-31T06:37:27;26.15;;;13.25;;
27957;SDS011;15295;42.658;23.374;2022-10-31T06:39:52;26.25;;;14.88;;
27957;SDS011;15295;42.658;23.374;2022-10-31T06:42:17;23.35;;;13.77;;
27957;SDS011;15295;42.658;23.374;2022-10-31T06:44:43;30.05;;;13.02;;
27957;SDS011;15295;42.658;23.374;2022-10-31T06:47:09;28.45;;;13.63;;
27957;SDS011;15295;42.658;23.374;2022-10-31T06:49:34;24.95;;;14.15;;
27957;SDS011;15295;42.658;23.374;2022-10-31T06:51:59;25.15;;;13.13;;
27957;SDS011;15295;42.658;23.374;2022-10-31T06:54:26;25.75;;;11.20;;
27957;SDS011;15295;42.658;23.374;2022-10-31T06:56:52;24.40;;;12.10;;
27957;SDS011;15295;42.658;23.374;2022-10-31T06:59:23;20.58;;;12.05;;
27957;SDS011;15295;42.658;23.374;2022-10-31T07:01:49;23.63;;;12.65;;
27957;SDS011;15295;42.658;23.374;2022-10-31T07:04:19;34.17;;;14.23;;
27957;SDS011;15295;42.658;23.374;2022-10-31T07:07:00;29.38;;;13.88;;
27957;SDS011;15295;42.658;23.374;2022-10-31T07:09:26;24.75;;;13.30;;
27957;SDS011;15295;42.658;23.374;2022-10-31T07:11:55;24.20;;;13.85;;
27957;SDS011;15295;42.658;23.374;2022-10-31T07:14:42;25.33;;;12.65;;
27957;SDS011;15295;42.658;23.374;2022-10-31T07:17:07;22.92;;;14.15;;
27957;SDS011;15295;42.658;23.374;2022-10-31T07:19:45;32.95;;;15.15;;
27957;SDS011;15295;42.658;23.374;2022-10-31T07:22:11;25.95;;;14.48;;
27957;SDS011;15295;42.658;23.374;2022-10-31T07:24:36;25.38;;;13.45;;
27957;SDS011;15295;42.658;23.374;2022-10-31T07:27:02;28.23;;;13.55;;
27957;SDS011;15295;42.658;23.374;2022-10-31T07:29:32;26.02;;;13.55;;
27957;SDS011;15295;42.658;23.374;2022-10-31T07:31:58;21.90;;;14.07;;
27957;SDS011;15295;42.658;23.374;2022-10-31T07:34:23;22.23;;;14.52;;
27957;SDS011;15295;42.658;23.374;2022-10-31T07:36:50;26.55;;;14.15;;
27957;SDS011;15295;42.658;23.374;2022-10-31T07:39:15;26.10;;;14.15;;
27957;SDS011;15295;42.658;23.374;2022-10-31T07:41:41;25.20;;;14.95;;
27957;SDS011;15295;42.658;23.374;2022-10-31T07:44:06;29.05;;;15.27;;
27957;SDS011;15295;42.658;23.374;2022-10-31T07:46:32;26.42;;;14.55;;
27957;SDS011;15295;42.658;23.374;2022-10-31T07:51:26;28.05;;;15.43;;
27957;SDS011;15295;42.658;23.374;2022-10-31T07:56:21;22.67;;;15.18;;
27957;SDS011;15295;42.658;23.374;2022-10-31T07:59:01;26.77;;;15.65;;
27957;SDS011;15295;42.658;23.374;2022-10-31T08:01:32;31.95;;;15.95;;
27957;SDS011;15295;42.658;23.374;2022-10-31T08:04:06;22.67;;;13.90;;
27957;SDS011;15295;42.658;23.374;2022-10-31T08:06:32;30.73;;;15.90;;
27957;SDS011;15295;42.658;23.374;2022-10-31T08:09:03;22.70;;;15.18;;
27957;SDS011;15295;42.658;23.374;2022-10-31T08:11:28;25.33;;;16.45;;
27957;SDS011;15295;42.658;23.374;2022-10-31T08:13:54;27.02;;;15.82;;
27957;SDS011;15295;42.658;23.374;2022-10-31T08:18:55;27.63;;;15.63;;
27957;SDS011;15295;42.658;23.374;2022-10-31T08:21:27;30.58;;;18.13;;
27957;SDS011;15295;42.658;23.374;2022-10-31T08:26:24;31.10;;;16.70;;
27957;SDS011;15295;42.658;23.374;2022-10-31T08:28:52;22.35;;;14.88;;
27957;SDS011;15295;42.658;23.374;2022-10-31T08:31:19;30.52;;;15.60;;
27957;SDS011;15295;42.658;23.374;2022-10-31T08:33:48;24.85;;;15.23;;
27957;SDS011;15295;42.658;23.374;2022-10-31T08:36:20;30.13;;;18.63;;
27957;SDS011;15295;42.658;23.374;2022-10-31T08:38:46;23.55;;;16.48;;
27957;SDS011;15295;42.658;23.374;2022-10-31T08:41:44;28.17;;;17.23;;
27957;SDS011;15295;42.658;23.374;2022-10-31T08:44:10;29.42;;;16.48;;
27957;SDS011;15295;42.658;23.374;2022-10-31T08:49:09;28.45;;;16.85;;
27957;SDS011;15295;42.658;23.374;2022-10-31T08:51:34;27.25;;;18.50;;
27957;SDS011;15295;42.658;23.374;2022-10-31T08:56:29;34.72;;;20.13;;
27957;SDS011;15295;42.658;23.374;2022-10-31T08:58:54;21.95;;;13.95;;
27957;SDS011;15295;42.658;23.374;2022-10-31T09:01:26;26.45;;;14.68;;
27957;SDS011;15295;42.658;23.374;2022-10-31T09:03:51;25.60;;;14.25;;
27957;SDS011;15295;42.658;23.374;2022-10-31T09:06:43;27.63;;;16.73;;
27957;SDS011;15295;42.658;23.374;2022-10-31T09:09:08;26.45;;;14.75;;
27957;SDS011;15295;42.658;23.374;2022-10-31T09:11:34;24.00;;;13.60;;
27957;SDS011;15295;42.658;23.374;2022-10-31T09:13:59;25.13;;;12.80;;
27957;SDS011;15295;42.658;23.374;2022-10-31T09:16:30;20.02;;;13.75;;
27957;SDS011;15295;42.658;23.374;2022-10-31T09:18:56;22.83;;;12.13;;
27957;SDS011;15295;42.658;23.374;2022-10-31T09:27:00;21.60;;;10.68;;
27957;SDS011;15295;42.658;23.374;2022-10-31T09:32:00;27.77;;;15.48;;
27957;SDS011;15295;42.658;23.374;2022-10-31T09:34:26;20.02;;;12.45;;
27957;SDS011;15295;42.658;23.374;2022-10-31T09:36:52;21.60;;;13.60;;
27957;SDS011;15295;42.658;23.374;2022-10-31T09:39:18;41.20;;;27.25;;
27957;SDS011;15295;42.658;23.374;2022-10-31T09:50:19;34.58;;;23.17;;
27957;SDS011;15295;42.658;23.374;2022-10-31T09:53:09;29.65;;;12.32;;
27957;SDS011;15295;42.658;23.374;2022-10-31T09:55:44;22.17;;;11.15;;
27957;SDS011;15295;42.658;23.374;2022-10-31T09:58:16;18.40;;;10.90;;
27957;SDS011;15295;42.658;23.374;2022-10-31T10:00:52;31.10;;;19.15;;
27957;SDS011;15295;42.658;23.374;2022-10-31T10:08:55;22.60;;;10.40;;
27957;SDS011;15295;42.658;23.374;2022-10-31T10:26:45;13.65;;;7.15;;
27957;SDS011;15295;42.658;23.374;2022-10-31T10:32:24;12.80;;;5.95;;
27957;SDS011;15295;42.658;23.374;2022-10-31T10:34:59;15.02;;;8.45;;
27957;SDS011;15295;42.658;23.374;2022-10-31T10:37:40;14.57;;;7.43;;
27957;SDS011;15295;42.658;23.374;2022-10-31T10:40:12;19.63;;;6.82;;
27957;SDS011;15295;42.658;23.374;2022-10-31T10:42:44;15.13;;;6.40;;
27957;SDS011;15295;42.658;23.374;2022-10-31T10:45:40;13.32;;;6.13;;
27957;SDS011;15295;42.658;23.374;2022-10-31T10:48:47;9.43;;;4.80;;
27957;SDS011;15295;42.658;23.374;2022-10-31T10:51:27;9.25;;;4.55;;
27957;SDS011;15295;42.658;23.374;2022-10-31T10:54:07;11.00;;;5.47;;
27957;SDS011;15295;42.658;23.374;2022-10-31T10:59:37;13.18;;;5.55;;
27957;SDS011;15295;42.658;23.374;2022-10-31T11:02:27;13.63;;;6.20;;
27957;SDS011;15295;42.658;23.374;2022-10-31T11:04:57;10.88;;;4.80;;
27957;SDS011;15295;42.658;23.374;2022-10-31T11:07:25;12.60;;;4.10;;
27957;SDS011;15295;42.658;23.374;2022-10-31T11:09:50;10.93;;;4.25;;
27957;SDS011;15295;42.658;23.374;2022-10-31T11:12:29;12.38;;;4.43;;
27957;SDS011;15295;42.658;23.374;2022-10-31T11:20:37;7.88;;;4.10;;
27957;SDS011;15295;42.658;23.374;2022-10-31T11:23:32;16.50;;;5.45;;
27957;SDS011;15295;42.658;23.374;2022-10-31T11:26:19;11.90;;;6.10;;
27957;SDS011;15295;42.658;23.374;2022-10-31T11:29:00;13.27;;;5.70;;
27957;SDS011;15295;42.658;23.374;2022-10-31T11:31:50;19.25;;;10.25;;
27957;SDS011;15295;42.658;23.374;2022-10-31T11:34:59;7.13;;;4.32;;
27957;SDS011;15295;42.658;23.374;2022-10-31T11:37:44;13.82;;;4.70;;
27957;SDS011;15295;42.658;23.374;2022-10-31T11:40:18;9.68;;;4.22;;
27957;SDS011;15295;42.658;23.374;2022-10-31T11:48:54;12.65;;;5.05;;
27957;SDS011;15295;42.658;23.374;2022-10-31T11:51:27;15.35;;;4.78;;
27957;SDS011;15295;42.658;23.374;2022-10-31T11:54:04;10.13;;;4.03;;
27957;SDS011;15295;42.658;23.374;2022-10-31T11:56:40;8.63;;;4.78;;
27957;SDS011;15295;42.658;23.374;2022-10-31T11:59:18;12.68;;;4.40;;
27957;SDS011;15295;42.658;23.374;2022-10-31T12:02:32;12.23;;;4.88;;
27957;SDS011;15295;42.658;23.374;2022-10-31T12:07:43;16.73;;;4.22;;
27957;SDS011;15295;42.658;23.374;2022-10-31T12:10:12;12.25;;;4.57;;
27957;SDS011;15295;42.658;23.374;2022-10-31T12:15:07;10.88;;;4.60;;
27957;SDS011;15295;42.658;23.374;2022-10-31T12:41:24;14.18;;;5.40;;
27957;SDS011;15295;42.658;23.374;2022-10-31T12:49:45;9.77;;;4.35;;
27957;SDS011;15295;42.658;23.374;2022-10-31T12:58:54;17.02;;;5.10;;
27957;SDS011;15295;42.658;23.374;2022-10-31T13:01:40;9.73;;;4.20;;
27957;SDS011;15295;42.658;23.374;2022-10-31T13:07:37;12.52;;;6.70;;
27957;SDS011;15295;42.658;23.374;2022-10-31T13:16:25;11.90;;;5.28;;
27957;SDS011;15295;42.658;23.374;2022-10-31T13:18:57;18.35;;;5.03;;
27957;SDS011;15295;42.658;23.374;2022-10-31T13:21:37;10.20;;;5.60;;
27957;SDS011;15295;42.658;23.374;2022-10-31T13:27:50;16.90;;;4.32;;
27957;SDS011;15295;42.658;23.374;2022-10-31T13:30:21;9.25;;;4.22;;
27957;SDS011;15295;42.658;23.374;2022-10-31T13:44:23;17.48;;;4.22;;
27957;SDS011;15295;42.658;23.374;2022-10-31T13:46:51;11.45;;;3.90;;
27957;SDS011;15295;42.658;23.374;2022-10-31T13:51:53;11.70;;;4.70;;
27957;SDS011;15295;42.658;23.374;2022-10-31T13:54:38;11.80;;;4.78;;
27957;SDS011;15295;42.658;23.374;2022-10-31T14:08:23;13.25;;;4.35;;
27957;SDS011;15295;42.658;23.374;2022-10-31T14:11:05;8.55;;;4.20;;
27957;SDS011;15295;42.658;23.374;2022-10-31T14:13:35;10.07;;;3.88;;
27957;SDS011;15295;42.658;23.374;2022-10-31T14:16:18;11.32;;;4.45;;
27957;SDS011;15295;42.658;23.374;2022-10-31T14:23:54;15.02;;;4.63;;
27957;SDS011;15295;42.658;23.374;2022-10-31T14:28:50;12.35;;;4.78;;
27957;SDS011;15295;42.658;23.374;2022-10-31T14:33:49;12.23;;;4.47;;
27957;SDS011;15295;42.658;23.374;2022-10-31T14:36:25;17.00;;;4.40;;
27957;SDS011;15295;42.658;23.374;2022-10-31T14:41:47;19.73;;;6.05;;
27957;SDS011;15295;42.658;23.374;2022-10-31T14:44:59;10.40;;;4.18;;
27957;SDS011;15295;42.658;23.374;2022-10-31T14:56:02;14.27;;;4.95;;
27957;SDS011;15295;42.658;23.374;2022-10-31T14:58:35;13.23;;;4.70;;
27957;SDS011;15295;42.658;23.374;2022-10-31T15:01:04;14.55;;;5.40;;
27957;SDS011;15295;42.658;23.374;2022-10-31T15:03:38;19.38;;;5.38;;
27957;SDS011;15295;42.658;23.374;2022-10-31T15:06:25;16.30;;;4.70;;
27957;SDS011;15295;42.658;23.374;2022-10-31T15:08:55;11.20;;;4.63;;
27957;SDS011;15295;42.658;23.374;2022-10-31T15:11:21;14.98;;;5.03;;
27957;SDS011;15295;42.658;23.374;2022-10-31T15:16:21;24.77;;;7.05;;
27957;SDS011;15295;42.658;23.374;2022-10-31T15:18:58;19.08;;;7.35;;
27957;SDS011;15295;42.658;23.374;2022-10-31T15:21:30;12.98;;;3.92;;
27957;SDS011;15295;42.658;23.374;2022-10-31T15:23:57;19.88;;;4.45;;
27957;SDS011;15295;42.658;23.374;2022-10-31T15:29:04;13.20;;;4.05;;
27957;SDS011;15295;42.658;23.374;2022-10-31T15:31:36;19.08;;;4.65;;
27957;SDS011;15295;42.658;23.374;2022-10-31T15:34:14;22.00;;;4.28;;
27957;SDS011;15295;42.658;23.374;2022-10-31T15:37:00;20.38;;;4.82;;
27957;SDS011;15295;42.658;23.374;2022-10-31T15:39:26;18.73;;;4.28;;
27957;SDS011;15295;42.658;23.374;2022-10-31T15:41:55;23.90;;;4.55;;
27957;SDS011;15295;42.658;23.374;2022-10-31T15:44:30;23.63;;;4.68;;
27957;SDS011;15295;42.658;23.374;2022-10-31T15:47:02;13.25;;;4.47;;
27957;SDS011;15295;42.658;23.374;2022-10-31T15:49:32;19.20;;;4.70;;
27957;SDS011;15295;42.658;23.374;2022-10-31T15:52:05;18.15;;;4.10;;
27957;SDS011;15295;42.658;23.374;2022-10-31T15:54:57;22.20;;;5.03;;
27957;SDS011;15295;42.658;23.374;2022-10-31T15:57:46;16.38;;;3.78;;
27957;SDS011;15295;42.658;23.374;2022-10-31T16:00:41;14.57;;;4.28;;
27957;SDS011;15295;42.658;23.374;2022-10-31T16:06:02;29.17;;;7.53;;
27957;SDS011;15295;42.658;23.374;2022-10-31T16:13:30;25.98;;;8.88;;
27957;SDS011;15295;42.658;23.374;2022-10-31T16:15:59;31.67;;;9.25;;
27957;SDS011;15295;42.658;23.374;2022-10-31T16:18:27;28.30;;;9.57;;
27957;SDS011;15295;42.658;23.374;2022-10-31T16:20:55;29.85;;;9.45;;
27957;SDS011;15295;42.658;23.374;2022-10-31T16:23:22;29.33;;;9.20;;
27957;SDS011;15295;42.658;23.374;2022-10-31T16:26:14;29.92;;;10.18;;
27957;SDS011;15295;42.658;23.374;2022-10-31T16:28:53;26.63;;;9.45;;
27957;SDS011;15295;42.658;23.374;2022-10-31T16:31:29;29.67;;;10.13;;
27957;SDS011;15295;42.658;23.374;2022-10-31T16:34:04;30.58;;;10.00;;
27957;SDS011;15295;42.658;23.374;2022-10-31T16:36:46;27.77;;;8.13;;
27957;SDS011;15295;42.658;23.374;2022-10-31T16:39:12;26.52;;;8.80;;
27957;SDS011;15295;42.658;23.374;2022-10-31T16:41:39;27.10;;;10.27;;
27957;SDS011;15295;42.658;23.374;2022-10-31T16:44:12;49.38;;;17.80;;
27957;SDS011;15295;42.658;23.374;2022-10-31T16:46:45;46.13;;;20.30;;
27957;SDS011;15295;42.658;23.374;2022-10-31T16:49:12;37.40;;;14.15;;
27957;SDS011;15295;42.658;23.374;2022-10-31T16:51:37;43.67;;;15.98;;
27957;SDS011;15295;42.658;23.374;2022-10-31T16:54:16;37.10;;;18.45;;
27957;SDS011;15295;42.658;23.374;2022-10-31T16:56:43;36.42;;;14.55;;
27957;SDS011;15295;42.658;23.374;2022-10-31T16:59:09;37.75;;;13.68;;
27957;SDS011;15295;42.658;23.374;2022-10-31T17:01:50;39.17;;;17.08;;
27957;SDS011;15295;42.658;23.374;2022-10-31T17:04:15;37.72;;;14.25;;
27957;SDS011;15295;42.658;23.374;2022-10-31T17:06:41;32.22;;;14.60;;
27957;SDS011;15295;42.658;23.374;2022-10-31T17:09:07;32.65;;;11.43;;
27957;SDS011;15295;42.658;23.374;2022-10-31T17:11:33;26.77;;;10.80;;
27957;SDS011;15295;42.658;23.374;2022-10-31T17:13:59;35.92;;;12.20;;
27957;SDS011;15295;42.658;23.374;2022-10-31T17:16:26;38.55;;;13.88;;
27957;SDS011;15295;42.658;23.374;2022-10-31T17:18:51;36.38;;;13.40;;
27957;SDS011;15295;42.658;23.374;2022-10-31T17:21:21;44.30;;;13.57;;
27957;SDS011;15295;42.658;23.374;2022-10-31T17:23:48;28.30;;;10.88;;
27957;SDS011;15295;42.658;23.374;2022-10-31T17:26:14;36.05;;;11.07;;
27957;SDS011;15295;42.658;23.374;2022-10-31T17:33:45;47.00;;;16.05;;
27957;SDS011;15295;42.658;23.374;2022-10-31T17:36:10;24.88;;;10.68;;
27957;SDS011;15295;42.658;23.374;2022-10-31T17:38:41;27.83;;;9.27;;
27957;SDS011;15295;42.658;23.374;2022-10-31T17:41:10;34.75;;;11.95;;
27957;SDS011;15295;42.658;23.374;2022-10-31T17:43:35;36.22;;;13.00;;
27957;SDS011;15295;42.658;23.374;2022-10-31T17:46:08;27.27;;;10.95;;
27957;SDS011;15295;42.658;23.374;2022-10-31T17:48:46;31.35;;;9.52;;
27957;SDS011;15295;42.658;23.374;2022-10-31T17:51:11;32.60;;;10.13;;
27957;SDS011;15295;42.658;23.374;2022-10-31T17:53:37;34.53;;;10.98;;
27957;SDS011;15295;42.658;23.374;2022-10-31T17:56:05;35.58;;;12.13;;
27957;SDS011;15295;42.658;23.374;2022-10-31T18:03:34;29.70;;;11.23;;
27957;SDS011;15295;42.658;23.374;2022-10-31T18:06:02;28.65;;;11.45;;
27957;SDS011;15295;42.658;23.374;2022-10-31T18:08:28;31.95;;;12.23;;
27957;SDS011;15295;42.658;23.374;2022-10-31T18:11:06;24.98;;;10.00;;
27957;SDS011;15295;42.658;23.374;2022-10-31T18:14:00;21.97;;;9.50;;
27957;SDS011;15295;42.658;23.374;2022-10-31T18:16:25;18.23;;;6.53;;
27957;SDS011;15295;42.658;23.374;2022-10-31T18:21:23;29.38;;;9.50;;
27957;SDS011;15295;42.658;23.374;2022-10-31T18:23:55;32.55;;;9.55;;
27957;SDS011;15295;42.658;23.374;2022-10-31T18:26:22;25.70;;;8.55;;
27957;SDS011;15295;42.658;23.374;2022-10-31T18:28:49;24.55;;;9.25;;
27957;SDS011;15295;42.658;23.374;2022-10-31T18:31:15;23.08;;;11.38;;
27957;SDS011;15295;42.658;23.374;2022-10-31T18:33:41;28.17;;;10.55;;
27957;SDS011;15295;42.658;23.374;2022-10-31T18:36:07;21.92;;;8.88;;
27957;SDS011;15295;42.658;23.374;2022-10-31T18:38:36;23.25;;;9.07;;
27957;SDS011;15295;42.658;23.374;2022-10-31T18:41:06;26.90;;;7.95;;
27957;SDS011;15295;42.658;23.374;2022-10-31T18:43:32;45.60;;;16.95;;
27957;SDS011;15295;42.658;23.374;2022-10-31T18:46:01;31.63;;;11.13;;
27957;SDS011;15295;42.658;23.374;2022-10-31T18:48:29;32.55;;;9.85;;
27957;SDS011;15295;42.658;23.374;2022-10-31T18:51:05;27.25;;;8.68;;
27957;SDS011;15295;42.658;23.374;2022-10-31T18:53:32;23.23;;;8.80;;